Time;durP1;ratioP1;P1;durP2;ratioP2;P2;SDS_P1;SDS_P2;PMS_P1;PMS_P2;Temp;Humidity;BMP_temperature;BMP_pressure;BME280_temperature;BME280_humidity;BME280_pressure;Samples;Min_cycle;Max_cycle;Signal;HPM_P1;HPM_P2
2022/03/03 00:05:13;;;;;;;106.77;96.13;;;;;;;7.01;100.00;101726.11;1850049;76;86335;-69
2022/03/03 00:10:58;;;;;;;100.57;90.10;;;;;;;7.08;100.00;101732.35;1884387;74;86219;-74
2022/03/03 00:16:41;;;;;;;107.00;95.57;;;;;;;6.98;100.00;101727.95;1805268;77;86732;-74
2022/03/03 00:22:25;;;;;;;107.47;96.47;;;;;;;6.93;100.00;101719.58;1946927;70;39682;-68
2022/03/03 00:28:12;;;;;;;106.33;94.97;;;;;;;6.73;100.00;101704.72;1855172;76;86043;-73
2022/03/03 00:33:56;;;;;;;103.97;92.37;;;;;;;6.66;100.00;101702.62;1900773;74;86059;-73
2022/03/03 00:39:40;;;;;;;103.80;92.83;;;;;;;6.56;100.00;101699.59;1948891;72;86379;-73
2022/03/03 00:45:25;;;;;;;102.40;91.60;;;;;;;6.49;100.00;101711.30;1978598;71;39623;-74
2022/03/03 00:51:09;;;;;;;99.67;89.23;;;;;;;6.30;100.00;101707.23;1836179;76;85504;-73
2022/03/03 00:56:54;;;;;;;101.57;88.03;;;;;;;6.38;100.00;101703.28;1810570;77;86813;-73
2022/03/03 01:02:39;;;;;;;99.83;89.03;;;;;;;6.48;100.00;101698.56;1910359;73;85668;-73
2022/03/03 01:08:23;;;;;;;96.67;86.50;;;;;;;6.64;100.00;101691.81;1980943;71;39656;-67
2022/03/03 01:14:08;;;;;;;103.30;92.03;;;;;;;6.49;100.00;101691.98;1829270;76;86006;-73
2022/03/03 01:19:52;;;;;;;104.80;93.43;;;;;;;6.64;100.00;101677.16;1871161;75;86092;-74
2022/03/03 01:25:36;;;;;;;103.80;92.43;;;;;;;6.61;100.00;101672.12;1933170;73;86179;-67
2022/03/03 01:31:21;;;;;;;100.50;88.13;;;;;;;6.69;100.00;101678.67;1966462;71;39569;-68
2022/03/03 01:37:05;;;;;;;108.13;96.23;;;;;;;6.79;100.00;101669.26;1902126;74;85667;-69
2022/03/03 01:42:50;;;;;;;101.80;90.77;;;;;;;6.81;100.00;101668.46;1842900;76;85820;-69
2022/03/03 01:48:34;;;;;;;105.73;94.23;;;;;;;6.85;100.00;101651.71;1923454;72;86333;-74
2022/03/03 01:54:19;;;;;;;109.20;93.77;;;;;;;6.99;100.00;101658.67;1796540;78;86213;-69
2022/03/03 02:00:06;;;;;;;102.67;91.57;;;;;;;6.89;100.00;101643.81;1808056;78;86292;-72
2022/03/03 02:05:49;;;;;;;104.77;93.03;;;;;;;6.89;100.00;101625.86;1870997;75;86262;-68
2022/03/03 02:11:34;;;;;;;111.67;98.97;;;;;;;6.85;100.00;101623.55;1873713;74;86706;-68
2022/03/03 02:17:20;;;;;;;108.77;96.53;;;;;;;6.73;100.00;101622.73;1798474;78;85456;-69
2022/03/03 02:23:05;;;;;;;106.53;94.83;;;;;;;6.59;100.00;101617.14;1893264;74;86545;-68
2022/03/03 02:28:50;;;;;;;108.97;92.70;;;;;;;6.66;100.00;101611.52;1808831;77;86364;-72
2022/03/03 02:34:36;;;;;;;112.30;100.17;;;;;;;6.61;100.00;101604.50;1920646;73;86693;-68
2022/03/03 02:40:21;;;;;;;108.67;94.53;;;;;;;6.67;100.00;101604.92;1987171;71;39551;-73
2022/03/03 02:46:07;;;;;;;105.23;93.67;;;;;;;6.44;100.00;101598.86;1909240;74;86113;-73
2022/03/03 02:51:51;;;;;;;107.67;95.33;;;;;;;6.37;100.00;101583.78;1871794;75;86813;-68
2022/03/03 02:57:54;;;;;;;104.03;93.23;;;;;;;6.58;100.00;101580.98;1927077;73;86626;-68
2022/03/03 03:06:46;;;;;;;109.77;98.00;;;;;;;6.46;100.00;101568.28;1990463;70;86022;-68
2022/03/03 03:09:17;;;;;;;108.10;96.73;;;;;;;6.49;100.00;101577.45;1853612;74;938896;-68
2022/03/03 03:11:47;;;;;;;109.37;97.57;;;;;;;6.58;100.00;101578.77;1870117;73;941113;-68
2022/03/03 03:14:17;;;;;;;111.15;96.47;;;;;;;6.56;100.00;101571.25;1865048;73;940999;-73
2022/03/03 03:16:47;;;;;;;110.20;93.47;;;;;;;6.63;100.00;101564.52;1872539;73;940968;-69
2022/03/03 03:19:17;;;;;;;103.03;91.40;;;;;;;6.61;100.00;101558.95;1828551;74;940999;-73
2022/03/03 03:21:47;;;;;;;106.47;95.00;;;;;;;6.67;100.00;101553.86;1847835;74;940886;-68
2022/03/03 03:24:18;;;;;;;109.45;95.20;;;;;;;6.62;100.00;101552.36;1820382;75;950204;-73
2022/03/03 03:26:48;;;;;;;108.53;95.40;;;;;;;6.58;100.00;101547.87;1837068;75;940835;-68
2022/03/03 03:29:18;;;;;;;105.57;94.03;;;;;;;6.62;100.00;101551.82;1824618;75;940801;-74
2022/03/03 03:31:48;;;;;;;107.53;95.90;;;;;;;6.62;100.00;101549.59;1836925;75;941045;-68
2022/03/03 03:34:18;;;;;;;104.53;93.42;;;;;;;6.55;100.00;101540.58;1825006;75;940935;-74
2022/03/03 03:36:48;;;;;;;109.27;93.43;;;;;;;6.54;100.00;101541.69;1837075;75;940868;-68
2022/03/03 03:39:18;;;;;;;106.80;94.53;;;;;;;6.53;100.00;101542.23;1824356;75;941082;-68
2022/03/03 03:41:49;;;;;;;106.43;95.13;;;;;;;6.45;100.00;101539.84;1836206;75;940915;-69
2022/03/03 03:44:19;;;;;;;104.43;89.97;;;;;;;6.43;100.00;101539.76;1825015;75;940877;-69
2022/03/03 03:46:49;;;;;;;103.07;92.07;;;;;;;6.43;100.00;101539.22;1836522;75;940801;-69
2022/03/03 03:49:19;;;;;;;102.22;91.15;;;;;;;6.39;100.00;101547.15;1825313;75;940820;-74
2022/03/03 03:51:49;;;;;;;108.47;93.50;;;;;;;6.39;100.00;101546.30;1836185;75;941107;-74
2022/03/03 03:54:19;;;;;;;108.45;96.55;;;;;;;6.37;100.00;101536.88;1825216;75;940875;-73
2022/03/03 03:56:50;;;;;;;110.90;96.67;;;;;;;6.34;100.00;101538.75;1837971;75;941058;-73
2022/03/03 03:59:20;;;;;;;108.07;95.83;;;;;;;6.21;100.00;101540.90;1824784;75;943756;-68
2022/03/03 04:01:50;;;;;;;106.57;93.30;;;;;;;6.24;100.00;101539.91;1836914;75;940838;-74
2022/03/03 04:07:35;;;;;;;103.03;91.53;;;;;;;6.13;100.00;101521.42;1944228;72;86365;-74
2022/03/03 04:13:21;;;;;;;94.73;84.47;;;;;;;5.98;100.00;101533.47;1982933;71;39756;-68
2022/03/03 04:19:05;;;;;;;104.83;90.23;;;;;;;6.04;100.00;101510.98;1875376;74;86156;-68
2022/03/03 04:24:48;;;;;;;104.37;89.40;;;;;;;6.10;100.00;101510.88;1801495;77;86610;-73
2022/03/03 04:30:32;;;;;;;110.33;91.23;;;;;;;6.15;100.00;101504.64;1930116;71;39725;-68
2022/03/03 04:36:16;;;;;;;104.00;89.47;;;;;;;5.93;100.00;101503.02;1844802;76;86528;-73
2022/03/03 04:42:00;;;;;;;104.77;92.83;;;;;;;5.94;100.00;101494.52;1822743;76;86389;-68
2022/03/03 04:47:45;;;;;;;114.93;92.80;;;;;;;6.16;100.00;101491.97;1807735;77;86686;-68
2022/03/03 04:53:31;;;;;;;118.03;93.70;;;;;;;6.19;100.00;101494.27;1940243;71;39600;-73
2022/03/03 04:59:15;;;;;;;98.07;87.33;;;;;;;6.09;100.00;101483.52;1825655;76;86312;-73
2022/03/03 05:04:59;;;;;;;100.13;87.37;;;;;;;6.09;100.00;101492.64;1840510;76;86355;-73
2022/03/03 05:10:43;;;;;;;103.37;88.20;;;;;;;6.11;100.00;101498.77;1810184;77;86217;-67
2022/03/03 05:16:27;;;;;;;112.43;92.80;;;;;;;6.26;100.00;101489.45;1974011;71;39649;-72
2022/03/03 05:22:11;;;;;;;115.67;91.17;;;;;;;6.37;100.00;101498.25;1850969;76;86387;-73
2022/03/03 05:27:55;;;;;;;112.67;92.60;;;;;;;6.35;100.00;101503.19;1881114;74;86378;-73
2022/03/03 05:33:40;;;;;;;116.93;94.87;;;;;;;6.44;100.00;101494.53;1911367;74;86600;-68
2022/03/03 05:39:25;;;;;;;115.40;96.33;;;;;;;6.41;100.00;101490.35;1986059;71;39824;-73
2022/03/03 05:45:12;;;;;;;116.93;96.63;;;;;;;6.43;100.00;101489.55;1829119;76;86041;-68
2022/03/03 05:50:57;;;;;;;121.00;96.93;;;;;;;6.50;100.00;101496.34;1903237;73;86165;-72
2022/03/03 05:56:45;;;;;;;117.07;94.83;;;;;;;6.73;100.00;101490.75;1806188;77;86298;-69
2022/03/03 06:02:33;;;;;;;120.50;92.93;;;;;;;6.62;100.00;101482.81;1979917;71;39487;-68
2022/03/03 06:08:18;;;;;;;118.60;96.63;;;;;;;6.71;100.00;101479.12;1839582;76;86480;-74
2022/03/03 06:14:09;;;;;;;121.07;96.63;;;;;;;6.83;100.00;101488.21;1882326;74;86365;-68
2022/03/03 06:19:54;;;;;;;122.33;96.57;;;;;;;6.76;100.00;101486.14;1878846;74;86198;-69
2022/03/03 06:25:40;;;;;;;130.50;96.93;;;;;;;6.81;100.00;101480.16;1908477;72;86683;-73
2022/03/03 06:31:25;;;;;;;124.67;96.80;;;;;;;6.82;100.00;101478.23;1985283;71;39522;-69
2022/03/03 06:37:10;;;;;;;116.67;94.40;;;;;;;6.97;100.00;101477.72;1831387;76;86402;-73
2022/03/03 06:43:00;;;;;;;116.10;95.00;;;;;;;6.92;100.00;101482.59;1901337;74;86477;-68
2022/03/03 06:48:41;;;;;;;113.93;92.50;;;;;;;6.94;100.00;101486.48;1947935;72;86339;-69
2022/03/03 06:54:27;;;;;;;124.20;99.77;;;;;;;7.08;100.00;101489.25;1949942;71;39610;-73
2022/03/03 07:00:17;;;;;;;128.33;103.70;;;;;;;7.02;100.00;101485.55;1830489;76;86684;-73
2022/03/03 07:06:01;;;;;;;125.13;100.70;;;;;;;7.11;100.00;101495.12;1892378;74;85464;-73
2022/03/03 07:11:47;;;;;;;131.87;107.17;;;;;;;7.24;100.00;101503.65;1806282;77;86324;-69
2022/03/03 07:17:35;;;;;;;126.87;109.60;;;;;;;7.33;100.00;101504.39;1975795;70;39591;-73
2022/03/03 07:23:23;;;;;;;133.53;118.23;;;;;;;7.29;100.00;101495.46;1811275;78;86276;-72
2022/03/03 07:29:10;;;;;;;131.50;116.83;;;;;;;7.37;100.00;101501.97;1840830;76;86035;-70
2022/03/03 07:38:19;;;;;;;133.03;113.57;;;;;;;7.45;100.00;101484.13;1827662;76;86713;-75
2022/03/03 07:44:06;;;;;;;131.23;109.20;;;;;;;7.38;100.00;101482.08;1802737;78;86313;-73
2022/03/03 07:49:51;;;;;;;137.20;114.13;;;;;;;7.44;100.00;101477.80;1887033;75;86254;-69
2022/03/03 07:55:40;;;;;;;134.70;119.50;;;;;;;7.48;100.00;101475.36;1945035;73;86797;-72
2022/03/03 07:58:15;;;;;;;130.43;115.28;;;;;;;7.43;100.00;101493.23;1848874;74;940906;-73
2022/03/03 08:04:01;;;;;;;133.03;118.40;;;;;;;7.54;100.00;101493.16;1914112;74;86533;-73
2022/03/03 08:09:47;;;;;;;130.83;113.97;;;;;;;7.60;100.00;101498.23;1808667;77;85460;-71
2022/03/03 08:15:33;;;;;;;130.23;111.43;;;;;;;7.76;100.00;101509.31;1924408;71;39542;-72
2022/03/03 08:21:17;;;;;;;131.70;115.00;;;;;;;7.94;100.00;101502.70;1825629;77;85759;-71
2022/03/03 08:27:03;;;;;;;127.07;112.57;;;;;;;8.11;100.00;101504.06;1801310;78;86412;-71
2022/03/03 08:32:51;;;;;;;130.57;116.83;;;;;;;8.12;100.00;101508.52;1810196;77;86179;-73
2022/03/03 08:38:36;;;;;;;132.67;119.43;;;;;;;8.21;100.00;101511.16;1921519;72;86404;-69
2022/03/03 08:44:23;;;;;;;125.57;112.27;;;;;;;8.10;100.00;101512.91;1928948;71;39706;-69
2022/03/03 08:50:13;;;;;;;122.47;110.13;;;;;;;8.13;100.00;101513.78;1848491;76;86207;-70
2022/03/03 08:56:00;;;;;;;121.07;108.07;;;;;;;8.25;100.00;101509.55;1872708;75;85536;-73
2022/03/03 09:01:45;;;;;;;124.30;111.00;;;;;;;8.42;100.00;101497.09;1875872;75;86332;-68
2022/03/03 09:07:29;;;;;;;122.00;109.00;;;;;;;8.62;100.00;101505.67;1980650;71;39755;-74
2022/03/03 09:13:17;;;;;;;121.80;109.20;;;;;;;8.85;100.00;101497.67;1828852;76;86193;-73
2022/03/03 09:19:01;;;;;;;122.30;109.13;;;;;;;8.82;100.00;101498.17;1834768;76;86597;-73
2022/03/03 09:24:46;;;;;;;122.97;110.50;;;;;;;8.87;100.00;101494.92;1851573;76;86315;-73
2022/03/03 09:30:32;;;;;;;124.47;111.77;;;;;;;8.92;100.00;101494.99;1984165;71;39608;-68
2022/03/03 09:36:18;;;;;;;124.63;111.67;;;;;;;9.07;100.00;101482.69;1836807;76;85452;-71
2022/03/03 09:42:02;;;;;;;121.37;108.90;;;;;;;9.09;100.00;101493.52;1808071;78;86459;-69
2022/03/03 09:47:46;;;;;;;119.90;106.97;;;;;;;9.09;100.00;101500.45;1875853;75;85410;-69
2022/03/03 09:53:32;;;;;;;124.40;111.00;;;;;;;9.21;100.00;101490.59;1979939;71;39575;-73
2022/03/03 09:59:17;;;;;;;121.23;107.00;;;;;;;9.24;100.00;101501.19;1831950;76;86217;-70
2022/03/03 10:05:02;;;;;;;124.80;110.87;;;;;;;9.51;100.00;101494.52;1844771;76;86508;-69
2022/03/03 10:10:48;;;;;;;126.57;111.97;;;;;;;9.47;100.00;101498.08;1864738;76;86582;-74
2022/03/03 10:16:33;;;;;;;125.43;108.90;;;;;;;9.64;100.00;101491.03;1983980;71;39403;-74
2022/03/03 10:22:18;;;;;;;121.53;108.13;;;;;;;9.83;100.00;101477.06;1810107;78;86841;-69
2022/03/03 10:28:19;;;;;;;124.27;109.87;;;;;;;10.11;100.00;101476.71;1808852;78;86538;-69
2022/03/03 10:34:19;;;;;;;127.27;108.47;;;;;;;10.25;100.00;101471.02;1856458;75;86469;-74
2022/03/03 10:40:22;;;;;;;117.83;104.87;;;;;;;10.22;100.00;101456.84;1956317;71;39621;-69
2022/03/03 10:46:07;;;;;;;117.03;104.13;;;;;;;10.42;100.00;101468.06;1884916;74;86323;-73
2022/03/03 10:51:51;;;;;;;118.10;104.20;;;;;;;10.61;100.00;101470.65;1878592;75;86405;-73
2022/03/03 10:57:38;;;;;;;114.30;102.07;;;;;;;10.59;100.00;101471.48;1918313;74;85989;-73
2022/03/03 11:03:30;;;;;;;115.10;102.63;;;;;;;10.69;100.00;101480.44;1977249;71;39570;-69
2022/03/03 11:09:14;;;;;;;117.57;103.07;;;;;;;10.73;100.00;101481.56;1851677;76;86364;-70
2022/03/03 11:15:00;;;;;;;118.03;105.63;;;;;;;10.82;100.00;101483.56;1887274;74;85612;-70
2022/03/03 11:20:45;;;;;;;100.60;90.33;;;;;;;11.06;100.00;101485.30;1806691;77;86525;-73
2022/03/03 11:26:33;;;;;;;98.37;88.97;;;;;;;11.32;100.00;101485.66;1979996;71;39772;-70
2022/03/03 11:32:19;;;;;;;84.50;76.37;;;;;;;11.51;100.00;101485.14;1803502;77;86314;-72
2022/03/03 11:38:04;;;;;;;79.93;72.07;;;;;;;11.57;100.00;101493.20;1795539;78;85340;-74
2022/03/03 11:43:51;;;;;;;86.03;78.33;;;;;;;11.55;100.00;101491.24;1807311;77;86435;-72
2022/03/03 11:50:03;;;;;;;84.90;76.93;;;;;;;11.61;100.00;101494.87;1890364;74;86203;-73
2022/03/03 11:55:54;;;;;;;97.00;87.93;;;;;;;11.68;100.00;101488.50;1856718;76;86177;-70
2022/03/03 12:01:56;;;;;;;89.23;80.40;;;;;;;11.54;100.00;101481.80;1800978;77;86069;-70
2022/03/03 12:07:39;;;;;;;85.03;76.60;;;;;;;11.73;100.00;101482.39;1909198;73;86166;-73
2022/03/03 12:13:36;;;;;;;83.53;75.90;;;;;;;11.81;100.00;101481.00;1865149;75;86282;-70
2022/03/03 12:16:37;;;;;;;81.13;73.63;;;;;;;11.81;100.00;101483.23;1815770;75;936764;-73
2022/03/03 12:22:29;;;;;;;80.47;73.57;;;;;;;12.02;100.00;101470.16;2006191;70;39746;-70
2022/03/03 12:28:21;;;;;;;83.13;75.97;;;;;;;12.26;100.00;101462.88;1820654;76;86273;-69
2022/03/03 12:34:08;;;;;;;84.00;76.90;;;;;;;12.38;100.00;101464.51;1880881;75;86367;-70
2022/03/03 12:39:56;;;;;;;94.93;87.07;;;;;;;12.12;100.00;101464.56;1891173;75;86378;-70
2022/03/03 12:45:42;;;;;;;86.20;78.53;;;;;;;12.06;100.00;101465.70;1935346;72;85395;-72
2022/03/03 12:51:31;;;;;;;87.47;79.47;;;;;;;12.14;100.00;101460.11;1980593;71;40252;-70
2022/03/03 12:57:18;;;;;;;93.57;85.33;;;;;;;12.12;100.00;101457.59;1937337;72;86567;-70
2022/03/03 13:03:04;;;;;;;93.00;84.77;;;;;;;12.11;100.00;101457.31;1807250;78;86111;-72
2022/03/03 13:12:12;;;;;;;74.40;67.63;;;;;;;12.49;100.00;101451.69;1836609;76;86343;-74
2022/03/03 13:18:02;;;;;;;77.23;70.77;;;;;;;12.53;100.00;101446.38;1869392;75;85921;-69
2022/03/03 13:23:50;;;;;;;76.93;70.83;;;;;;;12.43;100.00;101429.67;1810523;77;86327;-69
2022/03/03 13:29:38;;;;;;;77.53;71.33;;;;;;;12.32;100.00;101440.03;1901179;72;86655;-74
2022/03/03 13:35:29;;;;;;;74.60;68.10;;;;;;;12.46;100.00;101443.03;1976019;71;39801;-74
2022/03/03 13:41:26;;;;;;;62.20;57.50;;;;;;;12.55;100.00;101433.81;1801669;78;85295;-70
2022/03/03 13:47:32;;;;;;;61.87;57.60;;;;;;;12.53;100.00;101430.49;1929821;71;40515;-74
2022/03/03 13:53:26;;;;;;;63.23;58.97;;;;;;;12.69;100.00;101426.52;1850298;76;86584;-68
2022/03/03 13:59:21;;;;;;;60.10;56.10;;;;;;;12.69;100.00;101430.70;1987757;71;39564;-72
2022/03/03 14:05:09;;;;;;;67.03;62.63;;;;;;;12.73;100.00;101427.61;1888866;74;86813;-68
2022/03/03 14:10:57;;;;;;;65.33;61.13;;;;;;;12.71;100.00;101423.42;1887136;75;86635;-68
2022/03/03 14:16:45;;;;;;;66.57;62.17;;;;;;;12.62;100.00;101421.79;1798827;77;86255;-68
2022/03/03 14:22:29;;;;;;;66.47;62.23;;;;;;;12.67;100.00;101423.17;1946249;71;39692;-67
2022/03/03 14:28:14;;;;;;;65.50;61.20;;;;;;;12.72;100.00;101421.76;1848044;76;85435;-69
2022/03/03 14:33:58;;;;;;;64.80;60.60;;;;;;;12.75;100.00;101422.57;1870873;74;85438;-68
2022/03/03 14:39:42;;;;;;;66.30;62.00;;;;;;;12.79;100.00;101415.30;1871499;75;86420;-74
2022/03/03 14:45:27;;;;;;;65.20;60.90;;;;;;;12.72;100.00;101418.97;1986294;71;39765;-68
2022/03/03 14:51:13;;;;;;;64.53;60.47;;;;;;;12.81;100.00;101412.80;1837143;76;85369;-68
2022/03/03 14:56:57;;;;;;;67.43;63.07;;;;;;;12.62;100.00;101417.61;1909141;74;85438;-69
2022/03/03 15:02:42;;;;;;;70.67;66.23;;;;;;;12.50;100.00;101417.11;1915017;74;86334;-68
2022/03/03 15:08:25;;;;;;;69.07;64.57;;;;;;;12.56;100.00;101413.19;1988043;71;39471;-74
2022/03/03 15:14:10;;;;;;;59.70;55.50;;;;;;;12.41;100.00;101415.21;1861361;75;86559;-69
2022/03/03 15:19:54;;;;;;;67.07;62.67;;;;;;;12.37;100.00;101423.28;1891037;75;86447;-69
2022/03/03 15:25:39;;;;;;;64.83;60.33;;;;;;;12.45;100.00;101425.47;1911080;73;86613;-73
2022/03/03 15:31:23;;;;;;;65.63;61.30;;;;;;;12.49;100.00;101434.97;1984102;71;39673;-73
2022/03/03 15:37:07;;;;;;;64.63;60.43;;;;;;;12.53;100.00;101421.30;1884865;75;86531;-68
2022/03/03 15:42:52;;;;;;;65.43;61.43;;;;;;;12.50;100.00;101425.46;1874026;75;86171;-68
2022/03/03 15:48:36;;;;;;;63.70;59.50;;;;;;;12.48;100.00;101419.36;1929381;71;86478;-73
2022/03/03 15:54:21;;;;;;;61.10;57.00;;;;;;;12.49;100.00;101400.13;1890839;74;85500;-72
2022/03/03 16:00:08;;;;;;;68.30;64.10;;;;;;;12.33;100.00;101398.50;1875591;74;86137;-72
2022/03/03 16:05:50;;;;;;;66.20;62.00;;;;;;;12.35;100.00;101402.41;1852542;76;86209;-72
2022/03/03 16:11:36;;;;;;;65.60;61.30;;;;;;;12.31;100.00;101405.77;1927221;73;85351;-72
2022/03/03 16:17:25;;;;;;;63.60;59.50;;;;;;;12.24;100.00;101402.97;1813312;78;85442;-72
2022/03/03 16:23:06;;;;;;;66.37;62.17;;;;;;;12.13;100.00;101395.78;1880993;75;86144;-71
2022/03/03 16:28:52;;;;;;;67.37;63.07;;;;;;;12.15;100.00;101401.91;1852450;76;86397;-69
2022/03/03 16:35:11;;;;;;;68.30;63.90;;;;;;;12.07;100.00;101410.27;1830637;76;85394;-72
2022/03/03 16:40:55;;;;;;;66.30;62.17;;;;;;;12.03;100.00;101411.10;1889184;73;86391;-70
2022/03/03 16:46:43;;;;;;;64.47;60.37;;;;;;;11.96;100.00;101420.31;1924893;73;86336;-70
2022/03/03 16:52:29;;;;;;;69.73;65.33;;;;;;;11.85;100.00;101414.75;1980461;71;39524;-71
2022/03/03 16:58:16;;;;;;;73.33;68.53;;;;;;;11.81;100.00;101419.20;1850798;76;86216;-72
2022/03/03 17:04:00;;;;;;;72.97;68.37;;;;;;;11.81;100.00;101414.19;1911076;74;86271;-73
2022/03/03 17:09:43;;;;;;;70.23;65.43;;;;;;;11.72;100.00;101422.27;1863745;75;85997;-72
2022/03/03 17:15:28;;;;;;;68.73;64.43;;;;;;;11.67;100.00;101433.39;1985611;71;39558;-70
2022/03/03 17:21:13;;;;;;;72.90;68.27;;;;;;;11.69;100.00;101433.09;1847496;76;85913;-70
2022/03/03 17:27:00;;;;;;;72.47;67.77;;;;;;;11.64;100.00;101431.70;1873026;75;86347;-71
2022/03/03 17:32:45;;;;;;;71.90;67.10;;;;;;;11.57;100.00;101443.13;1882634;75;86328;-70
2022/03/03 17:38:30;;;;;;;71.47;66.63;;;;;;;11.53;100.00;101449.52;1978413;71;39711;-70
2022/03/03 17:44:15;;;;;;;69.43;64.93;;;;;;;11.46;100.00;101460.09;1949732;72;86398;-69
2022/03/03 17:49:59;;;;;;;74.27;69.27;;;;;;;11.52;100.00;101463.98;1883073;73;86105;-73
2022/03/03 17:55:44;;;;;;;70.53;65.63;;;;;;;11.37;100.00;101472.31;1862618;76;85309;-73
2022/03/03 18:01:29;;;;;;;69.83;64.73;;;;;;;11.40;100.00;101463.41;1973617;71;39755;-69
2022/03/03 18:07:12;;;;;;;70.90;65.77;;;;;;;11.40;100.00;101467.59;1847333;76;86203;-71
2022/03/03 18:12:56;;;;;;;76.97;71.87;;;;;;;11.41;100.00;101478.45;1872844;75;86307;-72
2022/03/03 18:18:40;;;;;;;76.07;70.87;;;;;;;11.42;100.00;101475.11;1905089;73;86479;-69
2022/03/03 18:24:25;;;;;;;78.47;73.00;;;;;;;11.44;100.00;101485.39;1984585;71;45312;-73
2022/03/03 18:30:11;;;;;;;78.00;72.50;;;;;;;11.44;100.00;101486.78;1839902;76;86123;-72
2022/03/03 18:35:56;;;;;;;71.67;66.57;;;;;;;11.43;100.00;101491.51;1887953;74;86329;-72
2022/03/03 18:41:41;;;;;;;78.73;73.30;;;;;;;11.42;100.00;101500.16;1940821;71;86574;-79
2022/03/03 18:47:27;;;;;;;82.23;76.33;;;;;;;11.38;100.00;101497.05;1980734;71;39677;-71
2022/03/03 18:56:26;;;;;;;83.70;77.77;;;;;;;11.32;100.00;101498.17;1978147;70;39624;-71
2022/03/03 19:02:12;;;;;;;83.30;77.13;;;;;;;11.29;100.00;101505.69;1820624;76;85465;-73
2022/03/03 19:07:55;;;;;;;72.87;66.77;;;;;;;11.27;100.00;101511.22;1865432;75;86614;-72
2022/03/03 19:13:41;;;;;;;76.80;70.80;;;;;;;11.30;100.00;101518.45;1919270;72;86219;-70
2022/03/03 19:19:25;;;;;;;77.93;71.83;;;;;;;11.35;100.00;101532.38;1947361;71;39432;-72
2022/03/03 19:25:12;;;;;;;79.20;73.10;;;;;;;11.33;100.00;101528.22;1839319;76;85424;-70
2022/03/03 19:31:00;;;;;;;76.93;70.93;;;;;;;11.28;100.00;101532.37;1873743;75;85694;-70
2022/03/03 19:36:47;;;;;;;81.97;75.87;;;;;;;11.29;100.00;101535.44;1798825;77;86600;-71
2022/03/03 19:42:32;;;;;;;80.57;74.23;;;;;;;11.23;100.00;101541.53;1978646;71;40495;-72
2022/03/03 19:48:16;;;;;;;82.47;76.17;;;;;;;11.23;100.00;101551.27;1845038;76;86301;-70
2022/03/03 19:54:02;;;;;;;85.97;79.20;;;;;;;11.21;100.00;101550.68;1886097;74;86597;-72
2022/03/03 19:59:47;;;;;;;86.03;79.23;;;;;;;11.14;100.00;101553.44;1809724;77;86120;-72
2022/03/03 20:05:30;;;;;;;85.47;78.60;;;;;;;11.11;100.00;101563.17;1976188;71;39424;-72
2022/03/03 20:11:14;;;;;;;93.80;86.40;;;;;;;11.10;100.00;101562.88;1828060;75;86445;-73
2022/03/03 20:17:01;;;;;;;91.50;84.50;;;;;;;11.06;100.00;101574.27;1873216;75;86503;-70
2022/03/03 20:22:45;;;;;;;83.50;76.50;;;;;;;11.06;100.00;101574.81;1938628;73;85578;-71
2022/03/03 20:28:31;;;;;;;88.37;80.97;;;;;;;11.01;100.00;101580.34;1954637;71;39515;-70
2022/03/03 20:34:17;;;;;;;89.30;81.83;;;;;;;10.93;100.00;101592.27;1835183;76;86359;-73
2022/03/03 20:40:03;;;;;;;84.70;77.30;;;;;;;10.93;100.00;101602.55;1872691;74;86242;-73
2022/03/03 20:45:47;;;;;;;83.07;75.53;;;;;;;10.85;100.00;101612.24;1867319;75;86246;-69
2022/03/03 20:51:38;;;;;;;85.47;77.57;;;;;;;10.89;100.00;101618.09;1979971;71;39610;-71
2022/03/03 20:57:18;;;;;;;84.43;76.83;;;;;;;10.81;100.00;101626.39;1842261;76;86341;-73
2022/03/03 21:06:08;;;;;;;81.47;74.27;;;;;;;10.80;100.00;101631.66;1850309;76;85695;-67
2022/03/03 21:08:39;;;;;;;80.07;72.67;;;;;;;10.74;100.00;101638.27;1809516;78;939203;-73
2022/03/03 21:14:23;;;;;;;77.60;70.20;;;;;;;10.76;100.00;101637.47;2048607;69;32769;-72
2022/03/03 21:20:11;;;;;;;78.73;71.73;;;;;;;10.75;100.00;101644.13;2010942;71;32922;-70
2022/03/03 21:26:00;;;;;;;83.17;75.67;;;;;;;10.70;100.00;101644.08;2016486;71;31363;-77
2022/03/03 21:31:43;;;;;;;78.40;70.97;;;;;;;10.68;100.00;101651.02;2015000;71;32872;-76
2022/03/03 21:37:27;;;;;;;72.83;66.30;;;;;;;10.68;100.00;101655.19;2016553;71;32825;-70
2022/03/03 21:43:11;;;;;;;74.33;67.47;;;;;;;10.62;100.00;101652.08;2005538;71;32944;-75
2022/03/03 21:48:56;;;;;;;76.97;70.37;;;;;;;10.59;100.00;101649.29;2007286;71;32839;-75
2022/03/03 21:54:40;;;;;;;75.60;68.90;;;;;;;10.56;100.00;101651.22;2003924;71;32955;-74
2022/03/03 22:00:26;;;;;;;76.37;69.63;;;;;;;10.60;100.00;101656.53;2012660;71;32844;-74
2022/03/03 22:06:11;;;;;;;73.87;67.53;;;;;;;10.54;100.00;101662.29;2002372;71;32812;-68
2022/03/03 22:11:56;;;;;;;71.53;65.43;;;;;;;10.48;100.00;101672.55;1996783;70;32977;-72
2022/03/03 22:17:42;;;;;;;76.80;70.10;;;;;;;10.46;100.00;101671.95;2009359;71;32839;-68
2022/03/03 22:23:27;;;;;;;75.90;69.20;;;;;;;10.53;100.00;101670.33;1998386;71;32808;-71
2022/03/03 22:29:11;;;;;;;75.10;68.50;;;;;;;10.52;100.00;101668.68;2011155;71;32989;-68
2022/03/03 22:34:57;;;;;;;78.40;71.80;;;;;;;10.48;100.00;101663.63;2003709;71;33370;-75
2022/03/03 22:40:44;;;;;;;76.63;69.83;;;;;;;10.48;100.00;101669.19;2016493;71;33410;-75
2022/03/03 22:46:28;;;;;;;75.50;68.90;;;;;;;10.46;100.00;101669.18;2014902;71;30898;-69
2022/03/03 22:52:18;;;;;;;72.97;66.17;;;;;;;10.38;100.00;101664.95;2003701;71;32911;-74
2022/03/03 22:58:03;;;;;;;77.67;70.70;;;;;;;10.35;100.00;101670.20;2002408;71;31008;-69
2022/03/03 23:10:12;;;;;;;74.03;67.47;;;;;;;10.35;100.00;101677.14;2009071;71;32914;-68
2022/03/03 23:15:57;;;;;;;72.80;66.47;;;;;;;10.27;100.00;101683.18;2006026;71;33323;-75
2022/03/03 23:21:44;;;;;;;74.97;68.33;;;;;;;10.26;100.00;101686.50;1994515;71;33014;-68
2022/03/03 23:27:30;;;;;;;78.10;71.57;;;;;;;10.26;100.00;101680.11;2009155;70;32883;-75
2022/03/03 23:33:18;;;;;;;82.17;75.50;;;;;;;10.28;100.00;101678.73;2017941;71;32837;-68
2022/03/03 23:39:08;;;;;;;80.57;74.07;;;;;;;10.26;100.00;101681.50;2005703;71;30903;-73
2022/03/03 23:44:53;;;;;;;80.07;73.37;;;;;;;10.14;100.00;101678.83;2016551;71;30901;-75
2022/03/03 23:50:37;;;;;;;80.37;73.57;;;;;;;10.16;100.00;101678.06;2002429;71;30856;-68
2022/03/03 23:56:21;;;;;;;78.43;71.77;;;;;;;10.11;100.00;101681.30;2003844;71;32819;-68
